Main page


Airports :

Ahmedabad, India

Sardar Vallabhbhai Patel International Airport

latitude: 23-04N, longitude: 072-38E, elevation: 55 m

Current weather observation

The report was made 17 minutes ago, at 06:00 UTC
Wind 9 kt from the North
Pressure 1014 hPa
Visibility: 6000 m

METAR: VAAH 200600Z 35009KT 6000 NSC 343/08 Q1014 NOSIG

Time: 11:47 (06:17 UTC)


The report was made 1 hour and 17 minutes ago, at 05:00 UTC
Forecast valid from 20 at 06 UTC to 21 at 12 UTC
Wind 8 kt from the North
Visibility: 6000 m
from 20 at 13 UTC to 20 at 15 UTC
Wind 3 kt from the Northwest
Visibility: 4000 m
smoke, haze
from 21 at 01 UTC to 21 at 03 UTC
Wind 4 kt from the North
Visibility: 2000 m
haze, mist
from 21 at 04 UTC to 21 at 06 UTC
Wind 8 kt from the North
Visibility: 6000 m

TAF: VAAH 200500Z 2006/2112 36008KT 6000 NSC BECMG 2013/2015 32003KT 4000 FU HZ NSC BECMG 2101/2103 35004KT 2000 HZ BR BECMG 2104/2106 36008KT 6000 NSC

Weather observations and forecasts of more than 4000 airports (METAR and TAF reports).

The available stations are represented by yellow and red dots on the map.

Hover mouse over dot to see the name of the station.

Then click to see weather observations and forecasts.

To change the map : click on the green buttons with a black cross to zoom in, on the green button with a dash to zoom out, or on the green arrows for adjacent maps.